sensor_id;sensor_type;location;lat;lon;timestamp;P1;durP1;ratioP1;P2;durP2;ratioP2
37983;SDS011;64625;50.882;4.376;2022-11-11T00:01:40;22.45;;;13.88;;
37983;SDS011;64625;50.882;4.376;2022-11-11T00:04:06;30.25;;;12.82;;
37983;SDS011;64625;50.882;4.376;2022-11-11T00:06:31;17.13;;;11.70;;
37983;SDS011;64625;50.882;4.376;2022-11-11T00:08:57;25.08;;;14.60;;
37983;SDS011;64625;50.882;4.376;2022-11-11T00:11:23;30.23;;;13.95;;
37983;SDS011;64625;50.882;4.376;2022-11-11T00:13:49;40.20;;;14.70;;
37983;SDS011;64625;50.882;4.376;2022-11-11T00:16:16;22.73;;;12.52;;
37983;SDS011;64625;50.882;4.376;2022-11-11T00:18:43;20.75;;;12.00;;
37983;SDS011;64625;50.882;4.376;2022-11-11T00:21:28;20.30;;;11.85;;
37983;SDS011;64625;50.882;4.376;2022-11-11T00:24:01;29.58;;;11.25;;
37983;SDS011;64625;50.882;4.376;2022-11-11T00:26:46;24.65;;;12.55;;
37983;SDS011;64625;50.882;4.376;2022-11-11T00:29:12;24.73;;;10.93;;
37983;SDS011;64625;50.882;4.376;2022-11-11T00:31:38;17.38;;;11.13;;
37983;SDS011;64625;50.882;4.376;2022-11-11T00:34:24;19.23;;;11.32;;
37983;SDS011;64625;50.882;4.376;2022-11-11T00:36:49;18.20;;;11.18;;
37983;SDS011;64625;50.882;4.376;2022-11-11T00:39:15;21.17;;;12.15;;
37983;SDS011;64625;50.882;4.376;2022-11-11T00:41:41;24.10;;;11.25;;
37983;SDS011;64625;50.882;4.376;2022-11-11T00:44:07;26.13;;;11.38;;
37983;SDS011;64625;50.882;4.376;2022-11-11T00:46:32;18.92;;;8.95;;
37983;SDS011;64625;50.882;4.376;2022-11-11T00:49:17;16.40;;;8.98;;
37983;SDS011;64625;50.882;4.376;2022-11-11T00:52:01;11.48;;;8.05;;
37983;SDS011;64625;50.882;4.376;2022-11-11T00:54:27;19.65;;;8.55;;
37983;SDS011;64625;50.882;4.376;2022-11-11T00:56:52;18.65;;;8.75;;
37983;SDS011;64625;50.882;4.376;2022-11-11T00:59:18;16.55;;;9.07;;
37983;SDS011;64625;50.882;4.376;2022-11-11T01:01:44;18.88;;;9.35;;
37983;SDS011;64625;50.882;4.376;2022-11-11T01:04:10;21.48;;;9.15;;
37983;SDS011;64625;50.882;4.376;2022-11-11T01:06:35;21.75;;;10.13;;
37983;SDS011;64625;50.882;4.376;2022-11-11T01:09:05;23.05;;;9.45;;
37983;SDS011;64625;50.882;4.376;2022-11-11T01:11:31;17.83;;;9.43;;
37983;SDS011;64625;50.882;4.376;2022-11-11T01:13:58;17.08;;;9.55;;
37983;SDS011;64625;50.882;4.376;2022-11-11T01:16:24;25.75;;;8.52;;
37983;SDS011;64625;50.882;4.376;2022-11-11T01:18:51;21.55;;;9.13;;
37983;SDS011;64625;50.882;4.376;2022-11-11T01:21:20;18.88;;;9.63;;
37983;SDS011;64625;50.882;4.376;2022-11-11T01:23:55;13.02;;;9.75;;
37983;SDS011;64625;50.882;4.376;2022-11-11T01:26:22;17.27;;;7.57;;
37983;SDS011;64625;50.882;4.376;2022-11-11T01:28:52;20.52;;;8.30;;
37983;SDS011;64625;50.882;4.376;2022-11-11T01:31:20;17.40;;;8.02;;
37983;SDS011;64625;50.882;4.376;2022-11-11T01:33:47;20.88;;;8.38;;
37983;SDS011;64625;50.882;4.376;2022-11-11T01:36:15;18.33;;;10.25;;
37983;SDS011;64625;50.882;4.376;2022-11-11T01:38:47;19.90;;;8.15;;
37983;SDS011;64625;50.882;4.376;2022-11-11T01:41:16;24.23;;;9.82;;
37983;SDS011;64625;50.882;4.376;2022-11-11T01:49:33;26.75;;;11.10;;
37983;SDS011;64625;50.882;4.376;2022-11-11T01:54:56;21.87;;;11.10;;
37983;SDS011;64625;50.882;4.376;2022-11-11T02:00:09;30.13;;;10.43;;
37983;SDS011;64625;50.882;4.376;2022-11-11T02:05:08;17.20;;;10.80;;
37983;SDS011;64625;50.882;4.376;2022-11-11T02:07:55;26.83;;;10.25;;
37983;SDS011;64625;50.882;4.376;2022-11-11T02:10:23;22.98;;;9.68;;
37983;SDS011;64625;50.882;4.376;2022-11-11T02:12:50;22.52;;;11.55;;
37983;SDS011;64625;50.882;4.376;2022-11-11T02:15:35;23.02;;;11.88;;
37983;SDS011;64625;50.882;4.376;2022-11-11T02:18:02;23.85;;;11.35;;
37983;SDS011;64625;50.882;4.376;2022-11-11T02:20:32;23.67;;;11.57;;
37983;SDS011;64625;50.882;4.376;2022-11-11T02:26:06;22.98;;;12.02;;
37983;SDS011;64625;50.882;4.376;2022-11-11T02:28:35;22.27;;;13.05;;
37983;SDS011;64625;50.882;4.376;2022-11-11T02:31:02;37.17;;;15.38;;
37983;SDS011;64625;50.882;4.376;2022-11-11T02:33:28;28.85;;;15.35;;
37983;SDS011;64625;50.882;4.376;2022-11-11T02:35:54;36.08;;;16.27;;
37983;SDS011;64625;50.882;4.376;2022-11-11T02:38:25;31.40;;;13.98;;
37983;SDS011;64625;50.882;4.376;2022-11-11T02:40:53;24.60;;;16.75;;
37983;SDS011;64625;50.882;4.376;2022-11-11T02:43:37;22.50;;;15.70;;
37983;SDS011;64625;50.882;4.376;2022-11-11T02:46:03;25.67;;;15.90;;
37983;SDS011;64625;50.882;4.376;2022-11-11T02:48:30;30.23;;;16.67;;
37983;SDS011;64625;50.882;4.376;2022-11-11T02:50:57;25.25;;;14.05;;
37983;SDS011;64625;50.882;4.376;2022-11-11T02:53:22;24.23;;;15.00;;
37983;SDS011;64625;50.882;4.376;2022-11-11T02:55:48;27.73;;;13.95;;
37983;SDS011;64625;50.882;4.376;2022-11-11T02:58:15;21.58;;;13.77;;
37983;SDS011;64625;50.882;4.376;2022-11-11T03:00:41;20.85;;;14.32;;
37983;SDS011;64625;50.882;4.376;2022-11-11T03:03:08;21.77;;;13.43;;
37983;SDS011;64625;50.882;4.376;2022-11-11T03:05:34;22.58;;;12.75;;
37983;SDS011;64625;50.882;4.376;2022-11-11T03:08:00;18.98;;;12.85;;
37983;SDS011;64625;50.882;4.376;2022-11-11T03:10:26;26.45;;;12.85;;
37983;SDS011;64625;50.882;4.376;2022-11-11T03:12:54;21.85;;;12.07;;
37983;SDS011;64625;50.882;4.376;2022-11-11T03:15:20;22.38;;;11.50;;
37983;SDS011;64625;50.882;4.376;2022-11-11T03:17:46;32.60;;;10.32;;
37983;SDS011;64625;50.882;4.376;2022-11-11T03:20:13;15.82;;;10.93;;
37983;SDS011;64625;50.882;4.376;2022-11-11T03:25:52;19.38;;;11.75;;
37983;SDS011;64625;50.882;4.376;2022-11-11T03:28:19;14.00;;;10.40;;
37983;SDS011;64625;50.882;4.376;2022-11-11T03:30:46;15.60;;;10.57;;
37983;SDS011;64625;50.882;4.376;2022-11-11T03:33:16;13.23;;;8.70;;
37983;SDS011;64625;50.882;4.376;2022-11-11T03:35:43;17.83;;;10.10;;
37983;SDS011;64625;50.882;4.376;2022-11-11T03:38:12;17.90;;;10.25;;
37983;SDS011;64625;50.882;4.376;2022-11-11T03:40:51;15.52;;;10.98;;
37983;SDS011;64625;50.882;4.376;2022-11-11T03:43:20;18.85;;;10.57;;
37983;SDS011;64625;50.882;4.376;2022-11-11T03:45:47;15.02;;;9.88;;
37983;SDS011;64625;50.882;4.376;2022-11-11T03:48:13;21.60;;;11.05;;
37983;SDS011;64625;50.882;4.376;2022-11-11T03:50:39;19.75;;;12.25;;
37983;SDS011;64625;50.882;4.376;2022-11-11T03:53:05;19.35;;;9.85;;
37983;SDS011;64625;50.882;4.376;2022-11-11T03:55:32;17.23;;;10.40;;
37983;SDS011;64625;50.882;4.376;2022-11-11T03:57:58;21.88;;;10.88;;
37983;SDS011;64625;50.882;4.376;2022-11-11T04:00:25;19.17;;;9.35;;
37983;SDS011;64625;50.882;4.376;2022-11-11T04:03:00;18.55;;;8.75;;
37983;SDS011;64625;50.882;4.376;2022-11-11T04:05:46;16.17;;;9.95;;
37983;SDS011;64625;50.882;4.376;2022-11-11T04:08:30;15.15;;;8.93;;
37983;SDS011;64625;50.882;4.376;2022-11-11T04:11:20;38.60;;;9.40;;
37983;SDS011;64625;50.882;4.376;2022-11-11T04:13:55;21.55;;;9.38;;
37983;SDS011;64625;50.882;4.376;2022-11-11T04:16:43;15.77;;;9.65;;
37983;SDS011;64625;50.882;4.376;2022-11-11T04:19:09;16.58;;;7.88;;
37983;SDS011;64625;50.882;4.376;2022-11-11T04:21:53;13.18;;;8.98;;
37983;SDS011;64625;50.882;4.376;2022-11-11T04:24:19;13.23;;;9.25;;
37983;SDS011;64625;50.882;4.376;2022-11-11T04:27:05;16.17;;;8.05;;
37983;SDS011;64625;50.882;4.376;2022-11-11T04:29:35;15.70;;;7.15;;
37983;SDS011;64625;50.882;4.376;2022-11-11T04:32:05;17.85;;;9.00;;
37983;SDS011;64625;50.882;4.376;2022-11-11T04:34:54;23.00;;;8.13;;
37983;SDS011;64625;50.882;4.376;2022-11-11T04:37:25;15.48;;;8.13;;
37983;SDS011;64625;50.882;4.376;2022-11-11T04:39:53;16.27;;;7.53;;
37983;SDS011;64625;50.882;4.376;2022-11-11T04:42:37;15.27;;;8.82;;
37983;SDS011;64625;50.882;4.376;2022-11-11T04:45:04;18.60;;;8.50;;
37983;SDS011;64625;50.882;4.376;2022-11-11T04:50:21;14.40;;;9.05;;
37983;SDS011;64625;50.882;4.376;2022-11-11T04:52:56;15.50;;;9.40;;
37983;SDS011;64625;50.882;4.376;2022-11-11T04:55:22;14.63;;;9.05;;
37983;SDS011;64625;50.882;4.376;2022-11-11T04:58:07;15.07;;;8.52;;
37983;SDS011;64625;50.882;4.376;2022-11-11T05:00:33;14.77;;;9.23;;
37983;SDS011;64625;50.882;4.376;2022-11-11T05:02:59;16.40;;;8.63;;
37983;SDS011;64625;50.882;4.376;2022-11-11T05:08:32;11.05;;;7.10;;
37983;SDS011;64625;50.882;4.376;2022-11-11T05:11:17;12.40;;;8.23;;
37983;SDS011;64625;50.882;4.376;2022-11-11T05:13:44;12.60;;;7.63;;
37983;SDS011;64625;50.882;4.376;2022-11-11T05:16:31;18.80;;;7.93;;
37983;SDS011;64625;50.882;4.376;2022-11-11T05:19:19;8.57;;;6.40;;
37983;SDS011;64625;50.882;4.376;2022-11-11T05:22:21;11.90;;;7.20;;
37983;SDS011;64625;50.882;4.376;2022-11-11T05:24:53;12.27;;;6.70;;
37983;SDS011;64625;50.882;4.376;2022-11-11T05:27:38;18.20;;;7.80;;
37983;SDS011;64625;50.882;4.376;2022-11-11T05:30:05;9.57;;;6.10;;
37983;SDS011;64625;50.882;4.376;2022-11-11T05:32:33;18.42;;;7.10;;
37983;SDS011;64625;50.882;4.376;2022-11-11T05:35:00;10.85;;;6.43;;
37983;SDS011;64625;50.882;4.376;2022-11-11T05:37:26;15.52;;;6.85;;
37983;SDS011;64625;50.882;4.376;2022-11-11T05:39:52;22.58;;;7.00;;
37983;SDS011;64625;50.882;4.376;2022-11-11T05:42:17;16.48;;;6.60;;
37983;SDS011;64625;50.882;4.376;2022-11-11T05:44:43;11.50;;;8.05;;
37983;SDS011;64625;50.882;4.376;2022-11-11T05:47:09;17.05;;;7.65;;
37983;SDS011;64625;50.882;4.376;2022-11-11T05:49:34;10.82;;;6.90;;
37983;SDS011;64625;50.882;4.376;2022-11-11T05:52:00;15.13;;;8.60;;
37983;SDS011;64625;50.882;4.376;2022-11-11T05:54:27;11.82;;;7.43;;
37983;SDS011;64625;50.882;4.376;2022-11-11T05:56:53;18.20;;;8.27;;
37983;SDS011;64625;50.882;4.376;2022-11-11T05:59:19;19.25;;;8.30;;
37983;SDS011;64625;50.882;4.376;2022-11-11T06:01:44;11.77;;;7.80;;
37983;SDS011;64625;50.882;4.376;2022-11-11T06:04:10;12.70;;;7.22;;
37983;SDS011;64625;50.882;4.376;2022-11-11T06:06:36;15.52;;;8.32;;
37983;SDS011;64625;50.882;4.376;2022-11-11T06:09:02;12.68;;;8.85;;
37983;SDS011;64625;50.882;4.376;2022-11-11T06:11:28;14.60;;;9.10;;
37983;SDS011;64625;50.882;4.376;2022-11-11T06:13:55;17.05;;;8.93;;
37983;SDS011;64625;50.882;4.376;2022-11-11T06:16:21;17.48;;;8.88;;
37983;SDS011;64625;50.882;4.376;2022-11-11T06:18:47;23.27;;;8.80;;
37983;SDS011;64625;50.882;4.376;2022-11-11T06:21:14;18.73;;;8.13;;
37983;SDS011;64625;50.882;4.376;2022-11-11T06:23:39;18.88;;;8.20;;
37983;SDS011;64625;50.882;4.376;2022-11-11T06:26:05;16.35;;;9.13;;
37983;SDS011;64625;50.882;4.376;2022-11-11T06:31:18;21.25;;;10.07;;
37983;SDS011;64625;50.882;4.376;2022-11-11T06:36:11;23.83;;;11.63;;
37983;SDS011;64625;50.882;4.376;2022-11-11T06:38:39;24.77;;;13.00;;
37983;SDS011;64625;50.882;4.376;2022-11-11T06:41:05;20.25;;;10.88;;
37983;SDS011;64625;50.882;4.376;2022-11-11T06:43:32;18.33;;;11.30;;
37983;SDS011;64625;50.882;4.376;2022-11-11T06:45:58;22.92;;;11.20;;
37983;SDS011;64625;50.882;4.376;2022-11-11T06:48:26;19.73;;;11.00;;
37983;SDS011;64625;50.882;4.376;2022-11-11T06:50:53;24.90;;;11.77;;
37983;SDS011;64625;50.882;4.376;2022-11-11T06:53:20;28.42;;;13.55;;
37983;SDS011;64625;50.882;4.376;2022-11-11T06:55:47;19.48;;;10.57;;
37983;SDS011;64625;50.882;4.376;2022-11-11T06:58:17;19.58;;;10.23;;
37983;SDS011;64625;50.882;4.376;2022-11-11T07:00:44;17.85;;;11.45;;
37983;SDS011;64625;50.882;4.376;2022-11-11T07:03:15;17.00;;;10.45;;
37983;SDS011;64625;50.882;4.376;2022-11-11T07:05:44;16.48;;;11.40;;
37983;SDS011;64625;50.882;4.376;2022-11-11T07:08:15;25.00;;;11.80;;
37983;SDS011;64625;50.882;4.376;2022-11-11T07:10:44;27.70;;;12.40;;
37983;SDS011;64625;50.882;4.376;2022-11-11T07:13:11;18.60;;;10.15;;
37983;SDS011;64625;50.882;4.376;2022-11-11T07:15:38;19.95;;;10.93;;
37983;SDS011;64625;50.882;4.376;2022-11-11T07:18:04;23.00;;;13.80;;
37983;SDS011;64625;50.882;4.376;2022-11-11T07:20:30;21.27;;;10.35;;
37983;SDS011;64625;50.882;4.376;2022-11-11T07:22:56;20.38;;;11.02;;
37983;SDS011;64625;50.882;4.376;2022-11-11T07:25:22;20.58;;;11.32;;
37983;SDS011;64625;50.882;4.376;2022-11-11T07:27:48;19.52;;;11.80;;
37983;SDS011;64625;50.882;4.376;2022-11-11T07:30:14;21.52;;;12.55;;
37983;SDS011;64625;50.882;4.376;2022-11-11T07:32:46;18.98;;;12.55;;
37983;SDS011;64625;50.882;4.376;2022-11-11T07:35:14;18.35;;;10.65;;
37983;SDS011;64625;50.882;4.376;2022-11-11T07:37:40;21.52;;;12.07;;
37983;SDS011;64625;50.882;4.376;2022-11-11T07:40:07;19.20;;;12.50;;
37983;SDS011;64625;50.882;4.376;2022-11-11T07:42:38;24.10;;;11.15;;
37983;SDS011;64625;50.882;4.376;2022-11-11T07:45:06;19.52;;;11.55;;
37983;SDS011;64625;50.882;4.376;2022-11-11T07:47:32;27.30;;;13.80;;
37983;SDS011;64625;50.882;4.376;2022-11-11T07:50:02;17.60;;;11.32;;
37983;SDS011;64625;50.882;4.376;2022-11-11T07:52:29;20.70;;;11.32;;
37983;SDS011;64625;50.882;4.376;2022-11-11T07:54:55;23.73;;;12.07;;
37983;SDS011;64625;50.882;4.376;2022-11-11T07:57:21;20.02;;;11.45;;
37983;SDS011;64625;50.882;4.376;2022-11-11T07:59:47;19.85;;;11.40;;
37983;SDS011;64625;50.882;4.376;2022-11-11T08:02:13;20.10;;;12.90;;
37983;SDS011;64625;50.882;4.376;2022-11-11T08:04:39;19.98;;;11.15;;
37983;SDS011;64625;50.882;4.376;2022-11-11T08:07:06;16.50;;;11.35;;
37983;SDS011;64625;50.882;4.376;2022-11-11T08:09:32;19.83;;;11.63;;
37983;SDS011;64625;50.882;4.376;2022-11-11T08:11:57;24.48;;;12.55;;
37983;SDS011;64625;50.882;4.376;2022-11-11T08:14:42;18.33;;;11.18;;
37983;SDS011;64625;50.882;4.376;2022-11-11T08:17:10;24.08;;;11.95;;
37983;SDS011;64625;50.882;4.376;2022-11-11T08:19:36;25.50;;;13.25;;
37983;SDS011;64625;50.882;4.376;2022-11-11T08:22:02;17.05;;;10.82;;
37983;SDS011;64625;50.882;4.376;2022-11-11T08:24:29;17.30;;;9.63;;
37983;SDS011;64625;50.882;4.376;2022-11-11T08:26:58;19.58;;;9.52;;
37983;SDS011;64625;50.882;4.376;2022-11-11T08:29:23;11.45;;;8.93;;
37983;SDS011;64625;50.882;4.376;2022-11-11T08:31:50;15.20;;;9.38;;
37983;SDS011;64625;50.882;4.376;2022-11-11T08:34:17;10.82;;;7.80;;
37983;SDS011;64625;50.882;4.376;2022-11-11T08:36:44;20.05;;;9.35;;
37983;SDS011;64625;50.882;4.376;2022-11-11T08:39:09;20.05;;;9.05;;
37983;SDS011;64625;50.882;4.376;2022-11-11T08:41:36;21.73;;;10.13;;
37983;SDS011;64625;50.882;4.376;2022-11-11T08:44:02;14.75;;;9.40;;
37983;SDS011;64625;50.882;4.376;2022-11-11T08:46:29;19.35;;;9.30;;
37983;SDS011;64625;50.882;4.376;2022-11-11T08:48:55;26.05;;;8.52;;
37983;SDS011;64625;50.882;4.376;2022-11-11T08:51:21;19.80;;;9.18;;
37983;SDS011;64625;50.882;4.376;2022-11-11T08:53:46;16.38;;;9.18;;
37983;SDS011;64625;50.882;4.376;2022-11-11T08:56:12;17.27;;;9.18;;
37983;SDS011;64625;50.882;4.376;2022-11-11T08:58:38;21.63;;;10.40;;
37983;SDS011;64625;50.882;4.376;2022-11-11T09:01:04;15.63;;;8.80;;
37983;SDS011;64625;50.882;4.376;2022-11-11T09:03:38;14.82;;;8.38;;
37983;SDS011;64625;50.882;4.376;2022-11-11T09:06:07;17.67;;;9.00;;
37983;SDS011;64625;50.882;4.376;2022-11-11T09:08:34;18.40;;;9.85;;
37983;SDS011;64625;50.882;4.376;2022-11-11T09:11:00;14.35;;;8.10;;
37983;SDS011;64625;50.882;4.376;2022-11-11T09:13:26;20.58;;;8.75;;
37983;SDS011;64625;50.882;4.376;2022-11-11T09:15:52;16.52;;;8.77;;
37983;SDS011;64625;50.882;4.376;2022-11-11T09:18:18;15.75;;;8.65;;
37983;SDS011;64625;50.882;4.376;2022-11-11T09:20:44;14.02;;;8.75;;
37983;SDS011;64625;50.882;4.376;2022-11-11T09:23:10;12.27;;;7.78;;
37983;SDS011;64625;50.882;4.376;2022-11-11T09:25:36;14.68;;;8.82;;
37983;SDS011;64625;50.882;4.376;2022-11-11T09:28:02;20.83;;;8.07;;
37983;SDS011;64625;50.882;4.376;2022-11-11T09:30:28;15.63;;;7.07;;
37983;SDS011;64625;50.882;4.376;2022-11-11T09:32:54;17.88;;;7.43;;
37983;SDS011;64625;50.882;4.376;2022-11-11T09:35:25;17.65;;;7.90;;
37983;SDS011;64625;50.882;4.376;2022-11-11T09:37:51;15.10;;;7.50;;
37983;SDS011;64625;50.882;4.376;2022-11-11T09:40:19;15.82;;;7.45;;
37983;SDS011;64625;50.882;4.376;2022-11-11T09:43:09;14.45;;;6.82;;
37983;SDS011;64625;50.882;4.376;2022-11-11T09:51:07;12.85;;;6.82;;
37983;SDS011;64625;50.882;4.376;2022-11-11T09:53:41;16.25;;;7.20;;
37983;SDS011;64625;50.882;4.376;2022-11-11T09:56:17;9.20;;;5.78;;
37983;SDS011;64625;50.882;4.376;2022-11-11T09:58:47;14.18;;;6.97;;
37983;SDS011;64625;50.882;4.376;2022-11-11T10:01:18;8.80;;;5.43;;
37983;SDS011;64625;50.882;4.376;2022-11-11T10:04:00;12.88;;;6.97;;
37983;SDS011;64625;50.882;4.376;2022-11-11T10:06:45;10.38;;;5.10;;
37983;SDS011;64625;50.882;4.376;2022-11-11T10:09:16;8.70;;;4.90;;
37983;SDS011;64625;50.882;4.376;2022-11-11T10:11:56;6.18;;;4.60;;
37983;SDS011;64625;50.882;4.376;2022-11-11T10:14:33;13.30;;;5.82;;
37983;SDS011;64625;50.882;4.376;2022-11-11T10:17:08;10.63;;;5.22;;
37983;SDS011;64625;50.882;4.376;2022-11-11T10:27:37;8.57;;;4.72;;
37983;SDS011;64625;50.882;4.376;2022-11-11T10:32:52;6.38;;;4.28;;
37983;SDS011;64625;50.882;4.376;2022-11-11T10:35:24;6.90;;;3.92;;
37983;SDS011;64625;50.882;4.376;2022-11-11T10:40:57;7.05;;;3.38;;
37983;SDS011;64625;50.882;4.376;2022-11-11T10:43:39;9.35;;;4.65;;
37983;SDS011;64625;50.882;4.376;2022-11-11T10:46:12;11.93;;;5.13;;
37983;SDS011;64625;50.882;4.376;2022-11-11T10:51:17;7.97;;;3.60;;
37983;SDS011;64625;50.882;4.376;2022-11-11T10:56:17;5.20;;;2.67;;
37983;SDS011;64625;50.882;4.376;2022-11-11T11:01:42;9.68;;;4.05;;
37983;SDS011;64625;50.882;4.376;2022-11-11T11:04:22;8.02;;;3.25;;
37983;SDS011;64625;50.882;4.376;2022-11-11T11:06:59;3.83;;;3.10;;
37983;SDS011;64625;50.882;4.376;2022-11-11T11:09:53;8.25;;;4.10;;
37983;SDS011;64625;50.882;4.376;2022-11-11T11:12:37;8.80;;;4.20;;
37983;SDS011;64625;50.882;4.376;2022-11-11T11:15:17;6.88;;;3.88;;
37983;SDS011;64625;50.882;4.376;2022-11-11T11:17:55;11.15;;;3.05;;
37983;SDS011;64625;50.882;4.376;2022-11-11T11:20:35;9.82;;;2.88;;
37983;SDS011;64625;50.882;4.376;2022-11-11T11:23:01;6.97;;;2.67;;
37983;SDS011;64625;50.882;4.376;2022-11-11T11:25:28;5.53;;;3.35;;
37983;SDS011;64625;50.882;4.376;2022-11-11T11:30:55;5.50;;;2.80;;
37983;SDS011;64625;50.882;4.376;2022-11-11T11:36:18;5.50;;;2.17;;
37983;SDS011;64625;50.882;4.376;2022-11-11T11:38:45;7.38;;;2.58;;
37983;SDS011;64625;50.882;4.376;2022-11-11T11:41:35;9.23;;;2.85;;
37983;SDS011;64625;50.882;4.376;2022-11-11T11:44:01;7.32;;;2.55;;
37983;SDS011;64625;50.882;4.376;2022-11-11T11:46:36;4.15;;;2.30;;
37983;SDS011;64625;50.882;4.376;2022-11-11T12:00:23;6.90;;;3.53;;
37983;SDS011;64625;50.882;4.376;2022-11-11T12:05:49;7.22;;;3.83;;
37983;SDS011;64625;50.882;4.376;2022-11-11T12:35:32;7.13;;;3.17;;
37983;SDS011;64625;50.882;4.376;2022-11-11T12:54:55;14.57;;;4.07;;
37983;SDS011;64625;50.882;4.376;2022-11-11T13:00:18;6.82;;;3.03;;
37983;SDS011;64625;50.882;4.376;2022-11-11T13:05:58;8.50;;;2.63;;
37983;SDS011;64625;50.882;4.376;2022-11-11T13:16:21;10.07;;;5.05;;
37983;SDS011;64625;50.882;4.376;2022-11-11T13:21:44;5.75;;;3.20;;
37983;SDS011;64625;50.882;4.376;2022-11-11T13:24:11;6.13;;;3.22;;
37983;SDS011;64625;50.882;4.376;2022-11-11T13:26:42;8.25;;;3.38;;
37983;SDS011;64625;50.882;4.376;2022-11-11T13:31:53;12.50;;;3.13;;
37983;SDS011;64625;50.882;4.376;2022-11-11T13:34:20;11.65;;;3.15;;
37983;SDS011;64625;50.882;4.376;2022-11-11T13:36:51;11.07;;;3.10;;
37983;SDS011;64625;50.882;4.376;2022-11-11T13:42:08;6.55;;;2.80;;
37983;SDS011;64625;50.882;4.376;2022-11-11T13:44:51;10.57;;;3.38;;
37983;SDS011;64625;50.882;4.376;2022-11-11T13:47:23;6.63;;;3.72;;
37983;SDS011;64625;50.882;4.376;2022-11-11T13:49:58;9.32;;;4.40;;
37983;SDS011;64625;50.882;4.376;2022-11-11T13:58:07;14.38;;;3.03;;
37983;SDS011;64625;50.882;4.376;2022-11-11T14:00:56;10.25;;;4.03;;
37983;SDS011;64625;50.882;4.376;2022-11-11T14:13:54;5.10;;;2.78;;
37983;SDS011;64625;50.882;4.376;2022-11-11T14:24:46;6.05;;;2.55;;
37983;SDS011;64625;50.882;4.376;2022-11-11T14:27:16;6.60;;;2.97;;
37983;SDS011;64625;50.882;4.376;2022-11-11T14:40:45;4.38;;;2.33;;
37983;SDS011;64625;50.882;4.376;2022-11-11T14:46:11;9.20;;;5.32;;
37983;SDS011;64625;50.882;4.376;2022-11-11T14:51:40;3.35;;;2.15;;
37983;SDS011;64625;50.882;4.376;2022-11-11T14:54:15;3.88;;;2.17;;
37983;SDS011;64625;50.882;4.376;2022-11-11T14:56:52;5.65;;;3.33;;
37983;SDS011;64625;50.882;4.376;2022-11-11T14:59:26;12.93;;;2.72;;
37983;SDS011;64625;50.882;4.376;2022-11-11T15:01:53;4.15;;;2.70;;
37983;SDS011;64625;50.882;4.376;2022-11-11T15:04:20;5.38;;;2.42;;
37983;SDS011;64625;50.882;4.376;2022-11-11T15:06:54;4.57;;;3.05;;
37983;SDS011;64625;50.882;4.376;2022-11-11T15:17:44;5.32;;;3.33;;
37983;SDS011;64625;50.882;4.376;2022-11-11T15:20:36;5.88;;;2.97;;
37983;SDS011;64625;50.882;4.376;2022-11-11T15:23:34;5.18;;;2.88;;
37983;SDS011;64625;50.882;4.376;2022-11-11T15:28:54;8.43;;;3.47;;
37983;SDS011;64625;50.882;4.376;2022-11-11T15:34:16;5.63;;;3.08;;
37983;SDS011;64625;50.882;4.376;2022-11-11T15:37:05;21.23;;;3.90;;
37983;SDS011;64625;50.882;4.376;2022-11-11T15:39:39;7.40;;;3.20;;
37983;SDS011;64625;50.882;4.376;2022-11-11T15:42:33;10.70;;;4.38;;
37983;SDS011;64625;50.882;4.376;2022-11-11T15:44:58;9.27;;;4.43;;
37983;SDS011;64625;50.882;4.376;2022-11-11T15:47:29;16.33;;;7.55;;
37983;SDS011;64625;50.882;4.376;2022-11-11T15:52:30;11.18;;;4.50;;
37983;SDS011;64625;50.882;4.376;2022-11-11T15:54:57;7.50;;;3.60;;
37983;SDS011;64625;50.882;4.376;2022-11-11T15:57:26;9.40;;;3.70;;
37983;SDS011;64625;50.882;4.376;2022-11-11T15:59:57;7.75;;;3.40;;
37983;SDS011;64625;50.882;4.376;2022-11-11T16:02:32;7.05;;;3.72;;
37983;SDS011;64625;50.882;4.376;2022-11-11T16:07:48;11.15;;;4.22;;
37983;SDS011;64625;50.882;4.376;2022-11-11T16:13:11;9.60;;;4.78;;
37983;SDS011;64625;50.882;4.376;2022-11-11T16:16:02;10.63;;;4.25;;
37983;SDS011;64625;50.882;4.376;2022-11-11T16:18:50;8.40;;;3.65;;
37983;SDS011;64625;50.882;4.376;2022-11-11T16:21:38;6.85;;;3.42;;
37983;SDS011;64625;50.882;4.376;2022-11-11T16:27:12;14.32;;;4.05;;
37983;SDS011;64625;50.882;4.376;2022-11-11T16:29:45;15.23;;;5.30;;
37983;SDS011;64625;50.882;4.376;2022-11-11T16:32:18;13.15;;;4.70;;
37983;SDS011;64625;50.882;4.376;2022-11-11T16:34:50;13.85;;;5.75;;
37983;SDS011;64625;50.882;4.376;2022-11-11T16:37:18;8.48;;;4.63;;
37983;SDS011;64625;50.882;4.376;2022-11-11T16:39:45;9.82;;;4.75;;
37983;SDS011;64625;50.882;4.376;2022-11-11T16:44:55;17.27;;;4.95;;
37983;SDS011;64625;50.882;4.376;2022-11-11T16:52:50;11.70;;;5.67;;
37983;SDS011;64625;50.882;4.376;2022-11-11T16:57:55;17.10;;;6.13;;
37983;SDS011;64625;50.882;4.376;2022-11-11T17:00:24;18.60;;;5.25;;
37983;SDS011;64625;50.882;4.376;2022-11-11T17:03:06;9.70;;;5.07;;
37983;SDS011;64625;50.882;4.376;2022-11-11T17:08:36;16.88;;;5.57;;
37983;SDS011;64625;50.882;4.376;2022-11-11T17:11:03;13.57;;;5.47;;
37983;SDS011;64625;50.882;4.376;2022-11-11T17:13:31;10.77;;;4.90;;
37983;SDS011;64625;50.882;4.376;2022-11-11T17:15:59;12.52;;;5.20;;
37983;SDS011;64625;50.882;4.376;2022-11-11T17:18:35;13.45;;;5.72;;
37983;SDS011;64625;50.882;4.376;2022-11-11T17:21:02;26.95;;;10.98;;
37983;SDS011;64625;50.882;4.376;2022-11-11T17:23:29;17.40;;;6.57;;
37983;SDS011;64625;50.882;4.376;2022-11-11T17:25:58;20.00;;;5.50;;
37983;SDS011;64625;50.882;4.376;2022-11-11T17:28:34;11.15;;;4.82;;
37983;SDS011;64625;50.882;4.376;2022-11-11T17:31:04;12.57;;;6.97;;
37983;SDS011;64625;50.882;4.376;2022-11-11T17:33:32;12.75;;;5.93;;
37983;SDS011;64625;50.882;4.376;2022-11-11T17:35:58;11.35;;;6.50;;
37983;SDS011;64625;50.882;4.376;2022-11-11T17:38:28;18.73;;;5.00;;
37983;SDS011;64625;50.882;4.376;2022-11-11T17:41:01;8.90;;;4.78;;
37983;SDS011;64625;50.882;4.376;2022-11-11T17:43:27;15.00;;;5.53;;
37983;SDS011;64625;50.882;4.376;2022-11-11T17:45:53;11.18;;;5.18;;
37983;SDS011;64625;50.882;4.376;2022-11-11T17:48:23;13.15;;;5.18;;
37983;SDS011;64625;50.882;4.376;2022-11-11T17:50:48;9.13;;;4.78;;
37983;SDS011;64625;50.882;4.376;2022-11-11T17:53:14;16.75;;;4.82;;
37983;SDS011;64625;50.882;4.376;2022-11-11T17:55:41;9.70;;;5.03;;
37983;SDS011;64625;50.882;4.376;2022-11-11T17:58:09;11.95;;;4.65;;
37983;SDS011;64625;50.882;4.376;2022-11-11T18:00:37;12.88;;;5.75;;
37983;SDS011;64625;50.882;4.376;2022-11-11T18:03:05;10.60;;;5.32;;
37983;SDS011;64625;50.882;4.376;2022-11-11T18:05:34;15.48;;;6.57;;
37983;SDS011;64625;50.882;4.376;2022-11-11T18:08:00;13.63;;;8.27;;
37983;SDS011;64625;50.882;4.376;2022-11-11T18:10:27;16.65;;;7.38;;
37983;SDS011;64625;50.882;4.376;2022-11-11T18:12:53;19.25;;;7.40;;
37983;SDS011;64625;50.882;4.376;2022-11-11T18:15:20;13.45;;;6.68;;
37983;SDS011;64625;50.882;4.376;2022-11-11T18:17:46;11.77;;;6.88;;
37983;SDS011;64625;50.882;4.376;2022-11-11T18:20:12;13.52;;;7.70;;
37983;SDS011;64625;50.882;4.376;2022-11-11T18:22:38;8.50;;;5.88;;
37983;SDS011;64625;50.882;4.376;2022-11-11T18:25:04;11.07;;;5.85;;
37983;SDS011;64625;50.882;4.376;2022-11-11T18:27:30;15.57;;;6.65;;
37983;SDS011;64625;50.882;4.376;2022-11-11T18:29:55;14.63;;;6.40;;
37983;SDS011;64625;50.882;4.376;2022-11-11T18:32:21;13.85;;;7.57;;
37983;SDS011;64625;50.882;4.376;2022-11-11T18:34:47;9.45;;;6.07;;
37983;SDS011;64625;50.882;4.376;2022-11-11T18:37:14;12.52;;;6.50;;